createdAt,value
2018-11-23T00:00:25.867Z,25.77
2018-11-23T00:02:55.024Z,25.03
2018-11-23T00:05:23.998Z,24.90
2018-11-23T00:07:53.421Z,25.97
2018-11-23T00:10:23.108Z,25.77
2018-11-23T00:12:51.659Z,25.30
2018-11-23T00:15:21.433Z,26.00
2018-11-23T00:17:50.065Z,26.90
2018-11-23T00:20:20.117Z,25.77
2018-11-23T00:22:49.264Z,25.60
2018-11-23T00:25:19.165Z,25.50
2018-11-23T00:27:47.841Z,26.10
2018-11-23T00:30:19.334Z,25.90
2018-11-23T00:32:48.315Z,24.67
2018-11-23T00:35:18.460Z,24.23
2018-11-23T00:37:47.629Z,29.47
2018-11-23T00:43:09.057Z,25.33
2018-11-23T00:45:42.833Z,25.53
2018-11-23T00:48:06.470Z,28.17
2018-11-23T00:50:35.342Z,25.67
2018-11-23T00:53:04.036Z,25.83
2018-11-23T00:55:32.671Z,26.30
2018-11-23T00:58:01.352Z,28.33
2018-11-23T01:00:34.250Z,28.07
2018-11-23T01:03:04.016Z,27.73
2018-11-23T01:05:32.788Z,26.40
2018-11-23T01:08:01.464Z,28.43
2018-11-23T01:10:30.798Z,26.80
2018-11-23T01:12:59.493Z,26.13
2018-11-23T01:15:28.556Z,26.73
2018-11-23T01:17:57.507Z,25.90
2018-11-23T01:20:27.004Z,26.80
2018-11-23T01:22:56.361Z,26.47
2018-11-23T01:25:25.912Z,26.53
2018-11-23T01:27:55.496Z,26.27
2018-11-23T01:30:29.132Z,26.70
2018-11-23T01:32:57.851Z,25.93
2018-11-23T01:35:26.701Z,25.83
2018-11-23T01:37:55.452Z,25.83
2018-11-23T01:40:25.452Z,28.23
2018-11-23T01:42:54.513Z,27.30
2018-11-23T01:45:23.183Z,27.70
2018-11-23T01:47:51.907Z,27.97
2018-11-23T01:50:21.914Z,28.00
2018-11-23T01:52:51.159Z,26.60
2018-11-23T01:55:20.863Z,27.73
2018-11-23T01:57:49.683Z,25.60
2018-11-23T02:00:20.586Z,26.43
2018-11-23T02:02:49.906Z,25.57
2018-11-23T02:05:18.693Z,25.13
2018-11-23T02:07:47.416Z,24.70
2018-11-23T02:10:16.989Z,24.60
2018-11-23T02:12:45.741Z,25.67
2018-11-23T02:15:16.349Z,26.00
2018-11-23T02:17:45.316Z,25.07
2018-11-23T02:20:15.257Z,25.73
2018-11-23T02:22:44.055Z,23.63
2018-11-23T02:25:12.773Z,25.77
2018-11-23T02:27:41.677Z,26.30
2018-11-23T02:30:14.384Z,23.67
2018-11-23T02:32:43.769Z,25.20
2018-11-23T02:35:12.831Z,24.10
2018-11-23T02:37:41.953Z,23.03
2018-11-23T02:40:12.312Z,25.30
2018-11-23T02:42:40.947Z,25.47
2018-11-23T02:45:12.398Z,25.43
2018-11-23T02:47:41.700Z,24.03
2018-11-23T02:50:10.477Z,26.50
2018-11-23T02:52:39.776Z,24.83
2018-11-23T02:55:09.408Z,26.77
2018-11-23T02:57:38.191Z,25.20
2018-11-23T03:00:09.173Z,26.67
2018-11-23T03:02:38.175Z,23.17
2018-11-23T03:05:08.434Z,24.90
2018-11-23T03:07:37.203Z,24.37
2018-11-23T03:10:06.952Z,24.77
2018-11-23T03:12:35.996Z,24.60
2018-11-23T03:15:05.915Z,24.13
2018-11-23T03:17:34.758Z,25.03
2018-11-23T03:20:03.591Z,24.67
2018-11-23T03:22:32.494Z,22.60
2018-11-23T03:25:01.281Z,22.90
2018-11-23T03:27:35.786Z,24.93
2018-11-23T03:30:05.785Z,24.07
2018-11-23T03:32:34.637Z,23.10
2018-11-23T03:35:03.610Z,24.63
2018-11-23T03:37:32.480Z,24.07
2018-11-23T03:40:01.213Z,23.60
2018-11-23T03:42:30.042Z,22.27
2018-11-23T03:44:58.920Z,24.27
2018-11-23T03:47:27.687Z,23.27
2018-11-23T03:49:56.663Z,25.73
2018-11-23T03:52:26.324Z,23.70
2018-11-23T03:54:55.251Z,25.17
2018-11-23T03:57:24.145Z,22.17
2018-11-23T03:59:52.849Z,23.07
2018-11-23T04:02:21.720Z,24.23
2018-11-23T04:04:50.630Z,23.87
2018-11-23T04:07:19.446Z,23.73
2018-11-23T04:09:48.263Z,22.87
2018-11-23T04:12:17.429Z,22.33
2018-11-23T04:14:46.430Z,22.80
2018-11-23T04:17:15.313Z,21.73
2018-11-23T04:19:44.333Z,22.67
2018-11-23T04:22:12.991Z,22.87
2018-11-23T04:24:41.793Z,23.67
2018-11-23T04:27:10.639Z,22.87
2018-11-23T04:29:39.249Z,24.03
2018-11-23T04:32:08.009Z,24.80
2018-11-23T04:34:36.734Z,24.80
2018-11-23T04:37:05.580Z,22.90
2018-11-23T04:39:34.379Z,25.10
2018-11-23T04:42:03.283Z,25.67
2018-11-23T04:44:33.039Z,25.00
2018-11-23T04:47:01.802Z,23.50
2018-11-23T04:49:30.636Z,25.23
2018-11-23T04:51:59.539Z,25.77
2018-11-23T04:54:28.291Z,26.87
2018-11-23T04:56:57.222Z,27.80
2018-11-23T04:59:25.973Z,30.90
2018-11-23T05:01:54.349Z,49.53
2018-11-23T05:04:22.669Z,50.97
2018-11-23T05:06:51.084Z,38.50
2018-11-23T05:09:19.636Z,37.27
2018-11-23T05:11:47.948Z,32.83
2018-11-23T05:14:16.241Z,44.90
2018-11-23T05:16:44.500Z,46.80
2018-11-23T05:19:12.851Z,44.73
2018-11-23T05:21:41.130Z,38.77
2018-11-23T05:24:09.399Z,44.17
2018-11-23T05:26:37.706Z,45.00
2018-11-23T05:29:06.086Z,41.80
2018-11-23T05:31:34.345Z,38.37
2018-11-23T05:34:03.592Z,35.70
2018-11-23T05:36:31.923Z,45.20
2018-11-23T05:39:00.189Z,33.27
2018-11-23T05:41:28.588Z,31.00
2018-11-23T05:43:56.889Z,28.80
2018-11-23T05:46:25.152Z,28.50
2018-11-23T05:48:53.516Z,27.17
2018-11-23T05:51:21.792Z,25.73
2018-11-23T05:53:50.167Z,26.10
2018-11-23T05:56:18.482Z,27.50
2018-11-23T05:58:46.826Z,26.90
2018-11-23T06:01:15.151Z,25.23
2018-11-23T06:03:43.530Z,25.23
2018-11-23T06:06:11.956Z,24.20
2018-11-23T06:08:40.330Z,26.93
2018-11-23T06:11:08.647Z,25.47
2018-11-23T06:13:36.990Z,24.23
2018-11-23T06:16:05.447Z,23.62
2018-11-23T06:18:33.755Z,24.67
2018-11-23T06:21:02.134Z,26.37
2018-11-23T06:26:25.215Z,24.17
2018-11-23T06:28:53.632Z,24.43
2018-11-23T06:31:21.903Z,29.87
2018-11-23T06:33:50.542Z,26.20
2018-11-23T06:36:18.876Z,25.87
2018-11-23T06:38:47.172Z,37.15
2018-11-23T06:41:15.667Z,29.50
2018-11-23T06:43:43.945Z,25.77
2018-11-23T06:46:12.876Z,28.17
2018-11-23T06:48:42.204Z,27.57
2018-11-23T06:51:10.503Z,27.37
2018-11-23T06:53:38.875Z,23.83
2018-11-23T06:56:07.282Z,24.93
2018-11-23T06:58:35.641Z,23.37
2018-11-23T07:01:04.046Z,24.73
2018-11-23T07:03:32.391Z,24.47
2018-11-23T07:06:00.712Z,25.97
2018-11-23T07:08:28.975Z,24.30
2018-11-23T07:11:01.447Z,23.37
2018-11-23T07:13:30.616Z,22.77
2018-11-23T07:15:58.931Z,24.27
2018-11-23T07:18:27.391Z,25.97
2018-11-23T07:20:55.787Z,25.03
2018-11-23T07:23:24.159Z,25.00
2018-11-23T07:25:52.512Z,24.00
2018-11-23T07:28:20.805Z,23.17
2018-11-23T07:30:49.107Z,22.77
2018-11-23T07:33:17.557Z,23.93
2018-11-23T07:35:45.867Z,24.50
2018-11-23T07:38:48.818Z,24.30
2018-11-23T07:41:29.654Z,24.97
2018-11-23T07:43:59.410Z,23.27
2018-11-23T07:46:27.728Z,25.70
2018-11-23T07:48:56.134Z,23.00
2018-11-23T07:51:24.446Z,24.73
2018-11-23T07:53:53.116Z,24.93
2018-11-23T07:56:21.442Z,25.43
2018-11-23T07:58:49.761Z,24.97
2018-11-23T08:01:18.100Z,26.90
2018-11-23T08:03:46.436Z,29.60
2018-11-23T08:06:14.755Z,28.10
2018-11-23T08:08:43.072Z,27.17
2018-11-23T08:11:11.343Z,27.40
2018-11-23T08:13:39.672Z,24.50
2018-11-23T08:16:08.053Z,27.67
2018-11-23T08:18:36.413Z,26.50
2018-11-23T08:21:04.704Z,26.87
2018-11-23T08:23:33.055Z,29.73
2018-11-23T08:26:01.365Z,30.83
2018-11-23T08:28:29.675Z,28.10
2018-11-23T08:30:57.975Z,29.13
2018-11-23T08:33:26.256Z,30.53
2018-11-23T08:35:54.515Z,27.20
2018-11-23T08:38:22.812Z,28.67
2018-11-23T08:40:51.143Z,29.70
2018-11-23T08:43:19.418Z,29.17
2018-11-23T08:45:48.459Z,30.60
2018-11-23T08:48:16.784Z,30.07
2018-11-23T08:50:45.312Z,30.77
2018-11-23T08:53:13.607Z,31.20
2018-11-23T08:55:41.929Z,31.70
2018-11-23T08:58:10.211Z,30.67
2018-11-23T09:00:38.577Z,31.07
2018-11-23T09:03:06.897Z,31.10
2018-11-23T09:05:35.127Z,31.13
2018-11-23T09:08:03.484Z,29.97
2018-11-23T09:10:31.817Z,34.43
2018-11-23T09:13:01.955Z,30.33
2018-11-23T09:15:30.267Z,33.40
2018-11-23T09:17:58.570Z,33.20
2018-11-23T09:20:26.886Z,38.73
2018-11-23T09:22:55.283Z,36.30
2018-11-23T09:25:24.066Z,35.37
2018-11-23T09:27:52.680Z,30.63
2018-11-23T09:30:22.422Z,31.73
2018-11-23T09:32:51.494Z,33.07
2018-11-23T09:35:19.847Z,31.33
2018-11-23T09:37:48.665Z,30.10
2018-11-23T09:40:20.263Z,28.27
2018-11-23T09:42:48.876Z,29.57
2018-11-23T09:45:18.501Z,29.60
2018-11-23T09:47:47.715Z,29.10
2018-11-23T09:50:17.382Z,29.10
2018-11-23T09:52:46.695Z,28.07
2018-11-23T09:55:14.970Z,31.87
2018-11-23T09:57:43.374Z,28.23
2018-11-23T10:00:15.200Z,29.60
2018-11-23T10:02:44.086Z,28.23
2018-11-23T10:05:13.237Z,29.10
2018-11-23T10:07:42.281Z,30.07
2018-11-23T10:10:11.661Z,29.87
2018-11-23T10:12:40.170Z,28.90
2018-11-23T10:15:09.324Z,30.53
2018-11-23T10:17:37.606Z,27.90
2018-11-23T10:20:08.238Z,28.10
2018-11-23T10:22:36.491Z,29.40
2018-11-23T10:25:05.871Z,28.77
2018-11-23T10:27:34.175Z,31.63
2018-11-23T10:30:02.926Z,27.63
2018-11-23T10:32:31.232Z,29.10
2018-11-23T10:34:59.610Z,28.23
2018-11-23T10:37:27.886Z,29.73
2018-11-23T10:39:56.170Z,28.37
2018-11-23T10:42:24.477Z,28.27
2018-11-23T10:44:52.780Z,28.80
2018-11-23T10:47:21.122Z,28.23
2018-11-23T10:49:49.420Z,28.30
2018-11-23T10:52:17.745Z,28.93
2018-11-23T10:54:46.069Z,27.40
2018-11-23T10:57:14.411Z,29.07
2018-11-23T10:59:42.716Z,28.67
2018-11-23T11:02:16.308Z,28.87
2018-11-23T11:04:49.934Z,28.57
2018-11-23T11:07:18.229Z,29.00
2018-11-23T11:09:46.471Z,26.80
2018-11-23T11:12:14.746Z,28.93
2018-11-23T11:14:43.010Z,27.67
2018-11-23T11:17:11.327Z,27.83
2018-11-23T11:19:39.582Z,28.27
2018-11-23T11:22:07.855Z,28.00
2018-11-23T11:24:36.229Z,28.23
2018-11-23T11:27:04.810Z,28.53
2018-11-23T11:29:33.078Z,29.30
2018-11-23T11:32:01.355Z,27.33
2018-11-23T11:34:29.659Z,27.40
2018-11-23T11:36:57.935Z,27.33
2018-11-23T11:39:26.300Z,26.10
2018-11-23T11:41:54.577Z,27.53
2018-11-23T11:44:22.893Z,26.60
2018-11-23T11:46:52.098Z,27.13
2018-11-23T11:49:22.746Z,25.93
2018-11-23T11:51:51.369Z,25.27
2018-11-23T11:54:19.767Z,25.43
2018-11-23T11:56:48.059Z,26.07
2018-11-23T11:59:16.762Z,23.80
2018-11-23T12:01:45.243Z,22.23
2018-11-23T12:04:13.628Z,23.47
2018-11-23T12:06:42.073Z,22.67
2018-11-23T12:09:11.494Z,22.60
2018-11-23T12:11:39.997Z,21.87
2018-11-23T12:14:08.294Z,22.67
2018-11-23T12:16:36.550Z,22.07
2018-11-23T12:19:05.655Z,22.47
2018-11-23T12:21:33.568Z,22.03
2018-11-23T12:24:01.969Z,22.87
2018-11-23T12:26:30.350Z,22.07
2018-11-23T12:28:58.645Z,22.27
2018-11-23T12:31:26.914Z,22.70
2018-11-23T12:33:55.219Z,23.50
2018-11-23T12:36:23.463Z,22.70
2018-11-23T12:38:51.774Z,23.17
2018-11-23T12:41:20.076Z,22.53
2018-11-23T12:43:48.403Z,21.13
2018-11-23T12:46:16.772Z,21.27
2018-11-23T12:48:45.232Z,20.83
2018-11-23T12:51:13.611Z,21.97
2018-11-23T12:53:41.907Z,22.07
2018-11-23T12:56:10.211Z,21.87
2018-11-23T12:58:38.561Z,22.53
2018-11-23T13:01:06.941Z,23.63
2018-11-23T13:03:35.375Z,21.93
2018-11-23T13:06:03.753Z,21.87
2018-11-23T13:08:32.034Z,22.87
2018-11-23T13:11:00.318Z,21.80
2018-11-23T13:13:28.676Z,25.43
2018-11-23T13:15:56.949Z,23.97
2018-11-23T13:18:25.328Z,22.70
2018-11-23T13:21:00.037Z,22.00
2018-11-23T13:23:28.363Z,22.77
2018-11-23T13:25:56.646Z,22.53
2018-11-23T13:28:24.978Z,22.73
2018-11-23T13:30:53.534Z,23.47
2018-11-23T13:33:21.788Z,23.27
2018-11-23T13:35:50.057Z,22.47
2018-11-23T13:38:18.414Z,23.00
2018-11-23T13:40:46.819Z,24.63
2018-11-23T13:43:15.087Z,23.00
2018-11-23T13:45:43.962Z,23.33
2018-11-23T13:48:12.261Z,24.20
2018-11-23T13:50:40.527Z,24.10
2018-11-23T13:53:08.923Z,22.83
2018-11-23T13:55:37.200Z,23.20
2018-11-23T13:58:05.855Z,25.23
2018-11-23T14:00:34.132Z,22.97
2018-11-23T14:03:02.550Z,22.23
2018-11-23T14:05:31.886Z,22.17
2018-11-23T14:08:01.530Z,22.97
2018-11-23T14:10:30.342Z,22.10
2018-11-23T14:12:59.105Z,24.23
2018-11-23T14:15:32.823Z,20.43
2018-11-23T14:18:02.246Z,24.27
2018-11-23T14:20:30.780Z,22.27
2018-11-23T14:22:59.034Z,21.30
2018-11-23T14:25:28.762Z,21.70
2018-11-23T14:27:57.475Z,21.50
2018-11-23T14:30:31.555Z,22.37
2018-11-23T14:33:00.505Z,21.23
2018-11-23T14:35:29.964Z,22.73
2018-11-23T14:37:59.314Z,21.73
2018-11-23T14:40:27.675Z,23.27
2018-11-23T14:42:56.443Z,22.17
2018-11-23T14:45:26.810Z,21.87
2018-11-23T14:47:56.423Z,22.17
2018-11-23T14:50:27.527Z,21.17
2018-11-23T14:52:59.843Z,21.70
2018-11-23T14:58:21.411Z,21.87
2018-11-23T15:00:50.222Z,21.50
2018-11-23T15:03:19.401Z,21.43
2018-11-23T15:05:47.058Z,21.67
2018-11-23T15:08:15.374Z,23.47
2018-11-23T15:10:45.379Z,21.87
2018-11-23T15:13:13.667Z,21.53
2018-11-23T15:15:42.358Z,22.30
2018-11-23T15:18:11.293Z,22.87
2018-11-23T15:20:41.110Z,24.77
2018-11-23T15:23:14.132Z,23.40
2018-11-23T15:25:42.814Z,21.97
2018-11-23T15:28:12.046Z,22.87
2018-11-23T15:30:41.090Z,21.83
2018-11-23T15:33:10.825Z,22.73
2018-11-23T15:35:41.671Z,23.37
2018-11-23T15:38:15.343Z,23.17
2018-11-23T15:40:45.784Z,23.57
2018-11-23T15:43:15.171Z,23.73
2018-11-23T15:45:43.454Z,22.73
2018-11-23T15:48:12.413Z,22.73
2018-11-23T15:50:46.259Z,23.13
2018-11-23T15:53:15.618Z,23.60
2018-11-23T15:55:43.920Z,23.37
2018-11-23T15:58:14.782Z,23.60
2018-11-23T16:00:44.591Z,23.43
2018-11-23T16:03:14.002Z,24.53
2018-11-23T16:05:42.360Z,29.63
2018-11-23T16:08:13.299Z,28.30
2018-11-23T16:10:41.589Z,27.23
2018-11-23T16:13:11.593Z,28.87
2018-11-23T16:15:39.174Z,27.30
2018-11-23T16:18:07.789Z,26.13
2018-11-23T16:20:38.376Z,31.55
2018-11-23T16:23:13.067Z,31.27
2018-11-23T16:25:42.216Z,31.07
2018-11-23T16:28:11.089Z,30.70
2018-11-23T16:30:41.941Z,29.23
2018-11-23T16:33:11.882Z,37.00
2018-11-23T16:35:40.786Z,30.87
2018-11-23T16:38:11.215Z,28.17
2018-11-23T16:40:40.783Z,29.40
2018-11-23T16:43:10.231Z,33.80
2018-11-23T16:45:40.147Z,29.10
2018-11-23T16:48:13.585Z,28.80
2018-11-23T16:50:45.956Z,29.13
2018-11-23T16:53:18.129Z,27.97
2018-11-23T16:55:49.266Z,28.00
2018-11-23T16:58:20.185Z,26.63
2018-11-23T17:00:51.095Z,29.70
2018-11-23T17:03:22.882Z,27.27
2018-11-23T17:05:52.918Z,27.67
2018-11-23T17:08:21.363Z,27.13
2018-11-23T17:10:52.113Z,27.17
2018-11-23T17:13:23.748Z,27.73
2018-11-23T17:15:52.531Z,33.92
2018-11-23T17:18:23.698Z,28.60
2018-11-23T17:20:52.676Z,27.43
2018-11-23T17:23:21.035Z,28.23
2018-11-23T17:25:51.135Z,29.00
2018-11-23T17:28:19.863Z,28.03
2018-11-23T17:30:49.207Z,27.67
2018-11-23T17:33:21.601Z,36.13
2018-11-23T17:35:50.519Z,30.97
2018-11-23T17:38:20.628Z,27.57
2018-11-23T17:40:50.042Z,28.23
2018-11-23T17:43:21.271Z,30.10
2018-11-23T17:45:54.803Z,28.17
2018-11-23T17:48:28.400Z,29.87
2018-11-23T17:50:59.023Z,28.87
2018-11-23T17:53:28.065Z,29.00
2018-11-23T17:55:59.570Z,27.60
2018-11-23T17:58:28.502Z,27.30
2018-11-23T18:00:57.038Z,29.10
2018-11-23T18:03:33.184Z,29.63
2018-11-23T18:06:01.541Z,28.53
2018-11-23T18:08:32.324Z,29.30
2018-11-23T18:11:00.695Z,30.33
2018-11-23T18:13:32.243Z,29.57
2018-11-23T18:16:04.419Z,29.23
2018-11-23T18:18:34.118Z,29.57
2018-11-23T18:21:05.232Z,29.10
2018-11-23T18:23:34.194Z,28.03
2018-11-23T18:26:02.912Z,29.20
2018-11-23T18:28:32.599Z,29.97
2018-11-23T18:31:01.719Z,29.13
2018-11-23T18:33:34.510Z,30.50
2018-11-23T18:36:03.037Z,32.03
2018-11-23T18:38:31.409Z,29.63
2018-11-23T18:41:01.347Z,30.43
2018-11-23T18:43:39.769Z,30.00
2018-11-23T18:46:13.253Z,29.93
2018-11-23T18:49:08.614Z,29.90
2018-11-23T18:51:39.283Z,31.93
2018-11-23T18:54:08.309Z,30.80
2018-11-23T18:56:37.621Z,29.53
2018-11-23T18:59:06.213Z,29.73
2018-11-23T19:01:41.159Z,30.77
2018-11-23T19:04:12.034Z,31.13
2018-11-23T19:06:41.328Z,31.00
2018-11-23T19:09:11.015Z,30.63
2018-11-23T19:11:40.744Z,34.83
2018-11-23T19:14:10.857Z,31.80
2018-11-23T19:16:39.854Z,30.37
2018-11-23T19:19:09.178Z,30.30
2018-11-23T19:21:38.716Z,32.60
2018-11-23T19:24:07.406Z,33.37
2018-11-23T19:26:38.804Z,31.77
2018-11-23T19:29:09.914Z,37.55
2018-11-23T19:31:41.912Z,33.53
2018-11-23T19:34:12.820Z,30.77
2018-11-23T19:36:42.156Z,30.90
2018-11-23T19:39:12.255Z,39.80
2018-11-23T19:41:40.968Z,33.43
2018-11-23T19:44:11.303Z,31.33
2018-11-23T19:46:41.582Z,32.97
2018-11-23T19:49:13.337Z,31.17
2018-11-23T19:51:43.922Z,30.50
2018-11-23T19:54:13.405Z,29.47
2018-11-23T19:56:41.925Z,30.83
2018-11-23T19:59:11.519Z,30.17
2018-11-23T20:01:42.075Z,32.90
2018-11-23T20:04:15.204Z,33.50
2018-11-23T20:06:45.228Z,34.73
2018-11-23T20:09:14.559Z,36.13
2018-11-23T20:11:43.745Z,39.70
2018-11-23T20:14:13.331Z,37.70
2018-11-23T20:16:43.393Z,39.00
2018-11-23T20:19:13.577Z,39.20
2018-11-23T20:21:42.294Z,33.40
2018-11-23T20:24:12.153Z,34.57
2018-11-23T20:26:43.182Z,33.23
2018-11-23T20:29:13.154Z,34.23
2018-11-23T20:31:43.786Z,32.30
2018-11-23T20:34:13.947Z,32.00
2018-11-23T20:36:42.680Z,33.77
2018-11-23T20:39:12.549Z,33.00
2018-11-23T20:41:44.009Z,31.73
2018-11-23T20:44:12.992Z,32.87
2018-11-23T20:46:43.806Z,30.30
2018-11-23T20:49:13.509Z,33.27
2018-11-23T20:51:41.807Z,32.27
2018-11-23T20:54:10.801Z,35.80
2018-11-23T20:56:41.741Z,33.70
2018-11-23T20:59:11.602Z,32.10
2018-11-23T21:01:42.854Z,34.27
2018-11-23T21:06:51.490Z,32.67
2018-11-23T21:09:21.822Z,31.30
2018-11-23T21:11:50.683Z,32.20
2018-11-23T21:14:21.862Z,34.70
2018-11-23T21:16:50.356Z,35.00
2018-11-23T21:19:22.858Z,37.60
2018-11-23T21:21:53.801Z,33.90
2018-11-23T21:24:24.333Z,35.07
2018-11-23T21:26:53.671Z,34.80
2018-11-23T21:29:24.107Z,32.30
2018-11-23T21:31:53.413Z,35.40
2018-11-23T21:34:23.888Z,31.20
2018-11-23T21:36:52.386Z,35.73
2018-11-23T21:39:21.219Z,33.53
2018-11-23T21:41:52.515Z,32.67
2018-11-23T21:44:21.168Z,33.03
2018-11-23T21:46:52.401Z,31.47
2018-11-23T21:49:22.119Z,31.40
2018-11-23T21:51:50.660Z,32.63
2018-11-23T21:54:19.874Z,32.23
2018-11-23T21:56:49.848Z,32.93
2018-11-23T21:59:21.289Z,31.27
2018-11-23T22:01:52.014Z,35.63
2018-11-23T22:04:25.018Z,32.00
2018-11-23T22:06:54.612Z,32.13
2018-11-23T22:09:23.389Z,33.40
2018-11-23T22:11:53.161Z,32.53
2018-11-23T22:14:24.591Z,32.53
2018-11-23T22:16:54.298Z,31.80
2018-11-23T22:19:24.420Z,32.63
2018-11-23T22:21:53.579Z,32.60
2018-11-23T22:24:24.728Z,35.07
2018-11-23T22:26:53.282Z,41.43
2018-11-23T22:29:22.004Z,37.00
2018-11-23T22:31:51.477Z,39.23
2018-11-23T22:34:23.083Z,39.40
2018-11-23T22:36:52.538Z,36.57
2018-11-23T22:39:23.845Z,34.87
2018-11-23T22:41:54.563Z,32.63
2018-11-23T22:44:24.652Z,33.93
2018-11-23T22:46:58.583Z,37.03
2018-11-23T22:49:27.259Z,37.47
2018-11-23T22:51:56.014Z,39.47
2018-11-23T22:54:24.406Z,34.27
2018-11-23T22:56:52.792Z,35.27
2018-11-23T22:59:21.250Z,38.93
2018-11-23T23:01:49.859Z,39.27
2018-11-23T23:04:18.219Z,38.13
2018-11-23T23:06:46.565Z,38.10
2018-11-23T23:09:14.854Z,36.93
2018-11-23T23:11:43.152Z,37.10
2018-11-23T23:14:11.462Z,31.93
2018-11-23T23:16:39.936Z,34.47
2018-11-23T23:19:08.261Z,38.33
2018-11-23T23:21:36.626Z,34.47
2018-11-23T23:24:11.670Z,36.30
2018-11-23T23:26:33.790Z,37.97
2018-11-23T23:29:02.158Z,37.00
2018-11-23T23:31:30.734Z,36.13
2018-11-23T23:33:59.119Z,33.90
2018-11-23T23:36:27.398Z,35.43
2018-11-23T23:38:55.672Z,34.57
2018-11-23T23:41:24.054Z,36.37
2018-11-23T23:43:52.338Z,34.83
2018-11-23T23:46:20.696Z,35.07
2018-11-23T23:48:49.075Z,33.93
2018-11-23T23:51:17.428Z,35.73
2018-11-23T23:53:45.822Z,35.93
2018-11-23T23:56:14.140Z,33.17
2018-11-23T23:58:42.464Z,35.50
